Página principal
METAR-TAF:

METAR-TAF

Aeroportos :

Nan, Tailândia

latitude: 18-46N, longitude: 100-46E, altura: 200 m

Observação actual do tempo

O boletim foi feito há 48 minutos, às 06:00 UTC
Vento 2 kt com direcção variável
Temperatura 33°C
Humidade 44%
Pressão 1012 hPa
Visibilidade: 8000 m

METAR: VTCN 230600Z VRB02KT 8000 NSC 33/19 Q1012 NOSIG

Hora: 13:48 (06:48 UTC)

Previsão

O boletim foi feito há 1 hora e 48 minutos, às 05:00 UTC
Previsão válida de 23 às 06 UTC a 24 às 06 UTC
Vento 5 kt de es-nordeste
Visibilidade: 8000 m
Tornando-se
de 23 às 23 UTC a 24 às 01 UTC
Visibilidade: 3000 m
neblina
Tornando-se
de 24 às 03 UTC a 24 às 05 UTC
Visibilidade: 9000 m

TAF: VTCN 230500Z 2306/2406 06005KT 8000 NSC BECMG 2323/2401 3000 BR NSC BECMG 2403/2405 9000 NSW

Observações e previsões do tempo de mais de 4000 aeroportos (mensagens METAR e TAF).

As estações disponíveis são os pontos amarelos e vermelhos sobre o mapa.

Mova o rato sobre o mapa para ver o nome da estação.

Depois clique no ponto para visualizar as observações e previsões meteorológicas.

Para alterar o mapa : clique nos botões verdes com uma cruz preta para aumentar o zoom; no botão verde com uma pitada de zoom; ou nas setas verdes para mapas adjacentes.


METAR-TAF: